sensor_id;sensor_type;location;lat;lon;timestamp;pressure;altitude;pressure_sealevel;temperature;humidity
73842;BME280;62184;52.006;5.924;2022-08-01T00:01:38;100876.13;;;19.07;74.59
73842;BME280;62184;52.006;5.924;2022-08-01T00:04:05;100873.69;;;19.02;74.77
73842;BME280;62184;52.006;5.924;2022-08-01T00:06:31;100869.06;;;19.04;74.94
73842;BME280;62184;52.006;5.924;2022-08-01T00:08:58;100871.69;;;19.06;74.83
73842;BME280;62184;52.006;5.924;2022-08-01T00:11:24;100867.16;;;19.06;74.95
73842;BME280;62184;52.006;5.924;2022-08-01T00:13:53;100877.09;;;19.06;74.74
73842;BME280;62184;52.006;5.924;2022-08-01T00:16:20;100873.53;;;19.05;74.60
73842;BME280;62184;52.006;5.924;2022-08-01T00:18:46;100872.81;;;19.02;74.86
73842;BME280;62184;52.006;5.924;2022-08-01T00:21:12;100874.75;;;19.00;74.39
73842;BME280;62184;52.006;5.924;2022-08-01T00:23:39;100876.69;;;18.98;74.27
73842;BME280;62184;52.006;5.924;2022-08-01T00:26:05;100872.16;;;18.98;74.60
73842;BME280;62184;52.006;5.924;2022-08-01T00:28:31;100876.69;;;18.98;74.61
73842;BME280;62184;52.006;5.924;2022-08-01T00:31:00;100873.97;;;18.98;74.74
73842;BME280;62184;52.006;5.924;2022-08-01T00:33:27;100881.03;;;19.00;74.78
73842;BME280;62184;52.006;5.924;2022-08-01T00:35:53;100881.72;;;19.04;74.76
73842;BME280;62184;52.006;5.924;2022-08-01T00:38:19;100877.09;;;19.06;74.42
73842;BME280;62184;52.006;5.924;2022-08-01T00:40:46;100876.91;;;19.09;74.54
73842;BME280;62184;52.006;5.924;2022-08-01T00:43:13;100880.31;;;19.13;74.20
73842;BME280;62184;52.006;5.924;2022-08-01T00:45:39;100880.22;;;19.14;74.48
73842;BME280;62184;52.006;5.924;2022-08-01T00:48:08;100881.97;;;19.15;74.40
73842;BME280;62184;52.006;5.924;2022-08-01T00:50:35;100876.63;;;19.14;74.13
73842;BME280;62184;52.006;5.924;2022-08-01T00:53:02;100878.38;;;19.15;74.33
73842;BME280;62184;52.006;5.924;2022-08-01T00:55:29;100873.06;;;19.13;74.40
73842;BME280;62184;52.006;5.924;2022-08-01T00:57:57;100874.09;;;19.11;74.57
73842;BME280;62184;52.006;5.924;2022-08-01T01:00:25;100877.97;;;19.06;74.29
73842;BME280;62184;52.006;5.924;2022-08-01T01:02:52;100884.25;;;19.07;74.22
73842;BME280;62184;52.006;5.924;2022-08-01T01:05:21;100874.47;;;19.04;74.57
73842;BME280;62184;52.006;5.924;2022-08-01T01:07:53;100869.16;;;19.03;74.50
73842;BME280;62184;52.006;5.924;2022-08-01T01:10:32;100871.84;;;19.03;74.38
73842;BME280;62184;52.006;5.924;2022-08-01T01:13:09;100870.31;;;18.99;74.81
73842;BME280;62184;52.006;5.924;2022-08-01T01:15:47;100876.06;;;18.93;74.66
73842;BME280;62184;52.006;5.924;2022-08-01T01:18:22;100871.81;;;18.89;74.33
73842;BME280;62184;52.006;5.924;2022-08-01T01:20:58;100879.13;;;18.87;74.79
73842;BME280;62184;52.006;5.924;2022-08-01T01:23:46;100889.00;;;18.88;75.05
73842;BME280;62184;52.006;5.924;2022-08-01T01:26:31;100886.47;;;18.85;74.36
73842;BME280;62184;52.006;5.924;2022-08-01T01:29:12;100888.22;;;18.86;74.98
73842;BME280;62184;52.006;5.924;2022-08-01T01:31:46;100889.00;;;18.88;74.84
73842;BME280;62184;52.006;5.924;2022-08-01T01:34:18;100883.50;;;18.89;74.31
73842;BME280;62184;52.006;5.924;2022-08-01T01:36:48;100874.31;;;18.92;74.80
73842;BME280;62184;52.006;5.924;2022-08-01T01:39:18;100882.34;;;18.93;74.26
73842;BME280;62184;52.006;5.924;2022-08-01T01:41:46;100885.13;;;18.92;74.11
73842;BME280;62184;52.006;5.924;2022-08-01T01:44:18;100883.50;;;18.89;74.29
73842;BME280;62184;52.006;5.924;2022-08-01T01:46:46;100889.00;;;18.88;74.33
73842;BME280;62184;52.006;5.924;2022-08-01T01:49:15;100887.34;;;18.85;74.55
73842;BME280;62184;52.006;5.924;2022-08-01T01:51:46;100889.19;;;18.85;74.27
73842;BME280;62184;52.006;5.924;2022-08-01T01:54:14;100889.28;;;18.83;74.21
73842;BME280;62184;52.006;5.924;2022-08-01T01:56:41;100888.31;;;18.84;74.18
73842;BME280;62184;52.006;5.924;2022-08-01T01:59:08;100891.13;;;18.83;74.36
73842;BME280;62184;52.006;5.924;2022-08-01T02:01:38;100884.84;;;18.82;74.84
73842;BME280;62184;52.006;5.924;2022-08-01T02:04:05;100887.44;;;18.84;74.59
73842;BME280;62184;52.006;5.924;2022-08-01T02:06:33;100893.03;;;18.81;74.64
73842;BME280;62184;52.006;5.924;2022-08-01T02:09:01;100886.75;;;18.80;74.37
73842;BME280;62184;52.006;5.924;2022-08-01T02:11:28;100882.28;;;18.79;74.64
73842;BME280;62184;52.006;5.924;2022-08-01T02:13:57;100885.09;;;18.78;74.84
73842;BME280;62184;52.006;5.924;2022-08-01T02:16:29;100896.88;;;18.77;74.76
73842;BME280;62184;52.006;5.924;2022-08-01T02:19:00;100895.13;;;18.76;75.18
73842;BME280;62184;52.006;5.924;2022-08-01T02:21:30;100894.06;;;18.78;74.92
73842;BME280;62184;52.006;5.924;2022-08-01T02:24:10;100890.50;;;18.78;75.05
73842;BME280;62184;52.006;5.924;2022-08-01T02:26:42;100894.25;;;18.75;75.20
73842;BME280;62184;52.006;5.924;2022-08-01T02:29:16;100900.72;;;18.73;75.15
73842;BME280;62184;52.006;5.924;2022-08-01T02:31:48;100884.84;;;18.66;75.44
73842;BME280;62184;52.006;5.924;2022-08-01T02:34:22;100884.06;;;18.64;75.39
73842;BME280;62184;52.006;5.924;2022-08-01T02:36:56;100888.75;;;18.61;75.74
73842;BME280;62184;52.006;5.924;2022-08-01T02:39:27;100889.91;;;18.57;75.32
73842;BME280;62184;52.006;5.924;2022-08-01T02:41:59;100888.25;;;18.54;75.45
73842;BME280;62184;52.006;5.924;2022-08-01T02:44:31;100889.28;;;18.52;75.60
73842;BME280;62184;52.006;5.924;2022-08-01T02:47:02;100882.31;;;18.48;75.75
73842;BME280;62184;52.006;5.924;2022-08-01T02:49:35;100892.47;;;18.43;76.18
73842;BME280;62184;52.006;5.924;2022-08-01T02:52:07;100901.81;;;18.37;76.33
73842;BME280;62184;52.006;5.924;2022-08-01T02:54:36;100904.69;;;18.34;76.60
73842;BME280;62184;52.006;5.924;2022-08-01T02:57:06;100890.13;;;18.37;76.44
73842;BME280;62184;52.006;5.924;2022-08-01T02:59:37;100891.09;;;18.36;76.47
73842;BME280;62184;52.006;5.924;2022-08-01T03:02:05;100905.47;;;18.36;76.71
73842;BME280;62184;52.006;5.924;2022-08-01T03:04:38;100903.81;;;18.33;76.83
73842;BME280;62184;52.006;5.924;2022-08-01T03:07:07;100900.25;;;18.33;76.77
73842;BME280;62184;52.006;5.924;2022-08-01T03:09:38;100899.47;;;18.31;77.16
73842;BME280;62184;52.006;5.924;2022-08-01T03:12:11;100898.75;;;18.27;77.01
73842;BME280;62184;52.006;5.924;2022-08-01T03:14:42;100899.97;;;18.22;77.36
73842;BME280;62184;52.006;5.924;2022-08-01T03:17:10;100903.78;;;18.18;77.51
73842;BME280;62184;52.006;5.924;2022-08-01T03:19:41;100899.34;;;18.17;77.10
73842;BME280;62184;52.006;5.924;2022-08-01T03:22:12;100903.03;;;18.16;77.22
73842;BME280;62184;52.006;5.924;2022-08-01T03:24:41;100903.13;;;18.14;77.33
73842;BME280;62184;52.006;5.924;2022-08-01T03:27:11;100904.94;;;18.14;77.56
73842;BME280;62184;52.006;5.924;2022-08-01T03:29:40;100903.13;;;18.14;77.19
73842;BME280;62184;52.006;5.924;2022-08-01T03:32:09;100899.53;;;18.14;77.07
73842;BME280;62184;52.006;5.924;2022-08-01T03:34:41;100895.88;;;18.15;77.01
73842;BME280;62184;52.006;5.924;2022-08-01T03:37:11;100896.63;;;18.17;77.58
73842;BME280;62184;52.006;5.924;2022-08-01T03:39:46;100893.84;;;18.18;77.38
73842;BME280;62184;52.006;5.924;2022-08-01T03:42:18;100903.78;;;18.18;77.43
73842;BME280;62184;52.006;5.924;2022-08-01T03:44:53;100895.78;;;18.16;77.43
73842;BME280;62184;52.006;5.924;2022-08-01T03:47:29;100901.19;;;18.16;77.23
73842;BME280;62184;52.006;5.924;2022-08-01T03:50:02;100893.16;;;18.15;77.45
73842;BME280;62184;52.006;5.924;2022-08-01T03:52:32;100902.03;;;18.17;77.37
73842;BME280;62184;52.006;5.924;2022-08-01T03:55:06;100901.00;;;18.19;77.27
73842;BME280;62184;52.006;5.924;2022-08-01T03:57:34;100898.22;;;18.21;77.54
73842;BME280;62184;52.006;5.924;2022-08-01T04:00:03;100904.44;;;18.23;77.31
73842;BME280;62184;52.006;5.924;2022-08-01T04:02:31;100904.25;;;18.26;77.35
73842;BME280;62184;52.006;5.924;2022-08-01T04:05:01;100912.28;;;18.27;77.00
73842;BME280;62184;52.006;5.924;2022-08-01T04:07:31;100909.56;;;18.27;77.18
73842;BME280;62184;52.006;5.924;2022-08-01T04:09:58;100901.47;;;18.27;76.85
73842;BME280;62184;52.006;5.924;2022-08-01T04:12:25;100903.47;;;18.24;77.21
73842;BME280;62184;52.006;5.924;2022-08-01T04:14:51;100900.84;;;18.22;76.80
73842;BME280;62184;52.006;5.924;2022-08-01T04:17:17;100901.88;;;18.20;76.74
73842;BME280;62184;52.006;5.924;2022-08-01T04:19:44;100905.53;;;18.19;77.15
73842;BME280;62184;52.006;5.924;2022-08-01T04:22:14;100907.28;;;18.20;77.31
73842;BME280;62184;52.006;5.924;2022-08-01T04:24:43;100908.97;;;18.22;77.19
73842;BME280;62184;52.006;5.924;2022-08-01T04:27:14;100911.59;;;18.24;77.10
73842;BME280;62184;52.006;5.924;2022-08-01T04:29:48;100914.97;;;18.27;77.05
73842;BME280;62184;52.006;5.924;2022-08-01T04:32:18;100917.75;;;18.26;76.91
73842;BME280;62184;52.006;5.924;2022-08-01T04:34:49;100914.91;;;18.29;76.81
73842;BME280;62184;52.006;5.924;2022-08-01T04:37:19;100915.44;;;18.36;76.92
73842;BME280;62184;52.006;5.924;2022-08-01T04:39:47;100920.66;;;18.39;77.11
73842;BME280;62184;52.006;5.924;2022-08-01T04:42:17;100926.69;;;18.44;76.83
73842;BME280;62184;52.006;5.924;2022-08-01T04:44:44;100922.16;;;18.44;76.92
73842;BME280;62184;52.006;5.924;2022-08-01T04:47:11;100924.78;;;18.46;76.96
73842;BME280;62184;52.006;5.924;2022-08-01T04:49:39;100927.44;;;18.47;76.97
73842;BME280;62184;52.006;5.924;2022-08-01T04:52:06;100929.19;;;18.48;77.11
73842;BME280;62184;52.006;5.924;2022-08-01T04:54:35;100939.56;;;18.56;77.25
73842;BME280;62184;52.006;5.924;2022-08-01T04:57:03;100941.91;;;18.62;77.41
73842;BME280;62184;52.006;5.924;2022-08-01T04:59:31;100939.06;;;18.65;76.83
73842;BME280;62184;52.006;5.924;2022-08-01T05:01:59;100939.66;;;18.70;76.76
73842;BME280;62184;52.006;5.924;2022-08-01T05:04:25;100937.66;;;18.74;76.49
73842;BME280;62184;52.006;5.924;2022-08-01T05:06:51;100941.03;;;18.77;76.77
73842;BME280;62184;52.006;5.924;2022-08-01T05:09:18;100937.38;;;18.78;76.30
73842;BME280;62184;52.006;5.924;2022-08-01T05:11:47;100939.22;;;18.78;76.10
73842;BME280;62184;52.006;5.924;2022-08-01T05:14:13;100940.09;;;18.78;76.44
73842;BME280;62184;52.006;5.924;2022-08-01T05:16:39;100947.25;;;18.79;76.32
73842;BME280;62184;52.006;5.924;2022-08-01T05:19:06;100942.78;;;18.78;76.43
73842;BME280;62184;52.006;5.924;2022-08-01T05:21:32;100948.03;;;18.81;76.11
73842;BME280;62184;52.006;5.924;2022-08-01T05:23:58;100942.53;;;18.83;75.98
73842;BME280;62184;52.006;5.924;2022-08-01T05:26:25;100938.84;;;18.84;76.04
73842;BME280;62184;52.006;5.924;2022-08-01T05:28:54;100946.88;;;18.85;76.43
73842;BME280;62184;52.006;5.924;2022-08-01T05:31:20;100945.94;;;18.86;75.88
73842;BME280;62184;52.006;5.924;2022-08-01T05:33:46;100948.38;;;18.91;76.50
73842;BME280;62184;52.006;5.924;2022-08-01T05:36:13;100949.06;;;18.94;75.86
73842;BME280;62184;52.006;5.924;2022-08-01T05:38:39;100949.94;;;18.95;75.85
73842;BME280;62184;52.006;5.924;2022-08-01T05:41:06;100966.19;;;18.95;76.26
73842;BME280;62184;52.006;5.924;2022-08-01T05:43:32;100965.38;;;18.93;76.17
73842;BME280;62184;52.006;5.924;2022-08-01T05:46:01;100958.22;;;18.92;76.10
73842;BME280;62184;52.006;5.924;2022-08-01T05:48:27;100961.81;;;18.92;76.02
73842;BME280;62184;52.006;5.924;2022-08-01T05:50:54;100954.94;;;18.87;75.92
73842;BME280;62184;52.006;5.924;2022-08-01T05:53:20;100970.56;;;18.82;76.27
73842;BME280;62184;52.006;5.924;2022-08-01T05:55:47;100968.28;;;18.74;76.56
73842;BME280;62184;52.006;5.924;2022-08-01T05:58:13;100964.88;;;18.70;76.15
73842;BME280;62184;52.006;5.924;2022-08-01T06:00:39;100965.59;;;18.74;76.55
73842;BME280;62184;52.006;5.924;2022-08-01T06:03:08;100968.91;;;18.79;76.59
73842;BME280;62184;52.006;5.924;2022-08-01T06:05:35;100977.88;;;18.80;76.37
73842;BME280;62184;52.006;5.924;2022-08-01T06:08:01;100973.28;;;18.82;76.19
73842;BME280;62184;52.006;5.924;2022-08-01T06:10:28;100976.66;;;18.85;75.92
73842;BME280;62184;52.006;5.924;2022-08-01T06:12:54;100975.78;;;18.85;76.11
73842;BME280;62184;52.006;5.924;2022-08-01T06:15:21;100981.56;;;18.79;75.69
73842;BME280;62184;52.006;5.924;2022-08-01T06:17:47;100988.19;;;18.73;75.14
73842;BME280;62184;52.006;5.924;2022-08-01T06:20:16;100993.09;;;18.66;75.43
73842;BME280;62184;52.006;5.924;2022-08-01T06:22:42;100988.19;;;18.57;75.91
73842;BME280;62184;52.006;5.924;2022-08-01T06:25:09;100989.66;;;18.47;75.45
73842;BME280;62184;52.006;5.924;2022-08-01T06:27:35;100991.88;;;18.39;75.76
73842;BME280;62184;52.006;5.924;2022-08-01T06:30:02;100991.06;;;18.37;76.11
73842;BME280;62184;52.006;5.924;2022-08-01T06:32:29;100994.72;;;18.36;76.33
73842;BME280;62184;52.006;5.924;2022-08-01T06:34:56;100995.44;;;18.40;76.57
73842;BME280;62184;52.006;5.924;2022-08-01T06:37:28;100998.91;;;18.42;76.35
73842;BME280;62184;52.006;5.924;2022-08-01T06:39:56;100999.09;;;18.39;76.63
73842;BME280;62184;52.006;5.924;2022-08-01T06:42:22;101002.59;;;18.41;76.65
73842;BME280;62184;52.006;5.924;2022-08-01T06:44:49;101000.28;;;18.50;77.02
73842;BME280;62184;52.006;5.924;2022-08-01T06:47:15;101006.13;;;18.58;76.87
73842;BME280;62184;52.006;5.924;2022-08-01T06:49:41;101004.06;;;18.63;76.79
73842;BME280;62184;52.006;5.924;2022-08-01T06:52:08;101003.91;;;18.66;76.78
73842;BME280;62184;52.006;5.924;2022-08-01T06:54:37;101000.84;;;18.73;76.77
73842;BME280;62184;52.006;5.924;2022-08-01T06:57:04;101008.47;;;18.82;76.73
73842;BME280;62184;52.006;5.924;2022-08-01T06:59:31;101012.38;;;18.92;76.56
73842;BME280;62184;52.006;5.924;2022-08-01T07:01:57;101005.13;;;18.92;76.32
73842;BME280;62184;52.006;5.924;2022-08-01T07:04:23;100999.19;;;18.86;76.08
73842;BME280;62184;52.006;5.924;2022-08-01T07:06:50;101010.28;;;18.81;76.44
73842;BME280;62184;52.006;5.924;2022-08-01T07:09:16;101011.31;;;18.79;76.66
73842;BME280;62184;52.006;5.924;2022-08-01T07:11:45;101010.97;;;18.85;76.61
73842;BME280;62184;52.006;5.924;2022-08-01T07:14:11;101007.31;;;18.86;76.11
73842;BME280;62184;52.006;5.924;2022-08-01T07:16:38;101012.38;;;18.92;76.28
73842;BME280;62184;52.006;5.924;2022-08-01T07:19:04;101008.47;;;18.97;75.79
73842;BME280;62184;52.006;5.924;2022-08-01T07:21:30;101017.09;;;19.04;75.59
73842;BME280;62184;52.006;5.924;2022-08-01T07:23:57;101004.44;;;19.04;75.45
73842;BME280;62184;52.006;5.924;2022-08-01T07:26:23;101015.97;;;19.08;75.38
73842;BME280;62184;52.006;5.924;2022-08-01T07:28:52;101022.44;;;19.05;75.13
73842;BME280;62184;52.006;5.924;2022-08-01T07:31:19;101025.38;;;19.01;75.22
73842;BME280;62184;52.006;5.924;2022-08-01T07:33:45;101035.88;;;19.07;75.04
73842;BME280;62184;52.006;5.924;2022-08-01T07:36:12;101024.59;;;19.15;75.03
73842;BME280;62184;52.006;5.924;2022-08-01T07:38:38;101022.59;;;19.18;74.69
73842;BME280;62184;52.006;5.924;2022-08-01T07:41:04;101033.16;;;19.23;74.50
73842;BME280;62184;52.006;5.924;2022-08-01T07:43:31;101035.69;;;19.26;74.50
73842;BME280;62184;52.006;5.924;2022-08-01T07:46:00;101033.69;;;19.29;74.01
73842;BME280;62184;52.006;5.924;2022-08-01T07:48:26;101038.94;;;19.32;74.14
73842;BME280;62184;52.006;5.924;2022-08-01T07:50:52;101041.22;;;19.40;74.45
73842;BME280;62184;52.006;5.924;2022-08-01T07:53:19;101042.53;;;19.49;74.14
73842;BME280;62184;52.006;5.924;2022-08-01T07:55:45;101040.41;;;19.54;74.03
73842;BME280;62184;52.006;5.924;2022-08-01T07:58:12;101049.31;;;19.56;74.14
73842;BME280;62184;52.006;5.924;2022-08-01T08:00:38;101053.16;;;19.52;73.88
73842;BME280;62184;52.006;5.924;2022-08-01T08:03:07;101058.16;;;19.43;74.24
73842;BME280;62184;52.006;5.924;2022-08-01T08:05:34;101058.69;;;19.34;74.09
73842;BME280;62184;52.006;5.924;2022-08-01T08:08:00;101059.44;;;19.21;74.09
73842;BME280;62184;52.006;5.924;2022-08-01T08:10:27;101067.41;;;19.08;74.52
73842;BME280;62184;52.006;5.924;2022-08-01T08:12:53;101066.78;;;19.03;74.99
73842;BME280;62184;52.006;5.924;2022-08-01T08:15:19;101063.13;;;19.04;75.52
73842;BME280;62184;52.006;5.924;2022-08-01T08:17:46;101071.84;;;19.09;75.76
73842;BME280;62184;52.006;5.924;2022-08-01T08:20:15;101071.44;;;19.17;76.02
73842;BME280;62184;52.006;5.924;2022-08-01T08:22:41;101075.44;;;19.25;76.01
73842;BME280;62184;52.006;5.924;2022-08-01T08:25:08;101068.88;;;19.29;75.49
73842;BME280;62184;52.006;5.924;2022-08-01T08:27:35;101083.06;;;19.34;75.29
73842;BME280;62184;52.006;5.924;2022-08-01T08:30:02;101081.16;;;19.36;75.24
73842;BME280;62184;52.006;5.924;2022-08-01T08:32:29;101066.28;;;19.43;75.31
73842;BME280;62184;52.006;5.924;2022-08-01T08:34:55;101069.53;;;19.50;74.78
73842;BME280;62184;52.006;5.924;2022-08-01T08:37:24;101066.63;;;19.53;74.73
73842;BME280;62184;52.006;5.924;2022-08-01T08:39:51;101067.84;;;19.63;74.62
73842;BME280;62184;52.006;5.924;2022-08-01T08:42:18;101064.50;;;19.74;74.67
73842;BME280;62184;52.006;5.924;2022-08-01T08:44:45;101075.56;;;19.85;74.17
73842;BME280;62184;52.006;5.924;2022-08-01T08:47:12;101074.25;;;19.92;73.91
73842;BME280;62184;52.006;5.924;2022-08-01T08:49:42;101079.31;;;19.98;74.12
73842;BME280;62184;52.006;5.924;2022-08-01T08:52:10;101086.81;;;19.93;73.58
73842;BME280;62184;52.006;5.924;2022-08-01T08:54:41;101083.09;;;19.80;73.59
73842;BME280;62184;52.006;5.924;2022-08-01T08:57:09;101081.22;;;19.66;73.33
73842;BME280;62184;52.006;5.924;2022-08-01T08:59:39;101091.88;;;19.54;73.62
73842;BME280;62184;52.006;5.924;2022-08-01T09:02:07;101097.41;;;19.36;74.27
73842;BME280;62184;52.006;5.924;2022-08-01T09:04:35;101098.03;;;19.08;73.76
73842;BME280;62184;52.006;5.924;2022-08-01T09:07:04;101103.41;;;18.77;74.24
73842;BME280;62184;52.006;5.924;2022-08-01T09:09:32;101100.38;;;18.50;75.29
73842;BME280;62184;52.006;5.924;2022-08-01T09:12:01;101098.63;;;18.32;75.73
73842;BME280;62184;52.006;5.924;2022-08-01T09:14:27;101101.00;;;18.21;76.34
73842;BME280;62184;52.006;5.924;2022-08-01T09:17:03;101102.22;;;18.15;77.38
73842;BME280;62184;52.006;5.924;2022-08-01T09:19:38;101092.56;;;18.10;77.49
73842;BME280;62184;52.006;5.924;2022-08-01T09:22:08;101111.50;;;18.10;77.77
73842;BME280;62184;52.006;5.924;2022-08-01T09:24:35;101101.56;;;18.10;78.21
73842;BME280;62184;52.006;5.924;2022-08-01T09:27:16;101106.91;;;18.12;78.40
73842;BME280;62184;52.006;5.924;2022-08-01T09:29:44;101109.84;;;18.07;78.45
73842;BME280;62184;52.006;5.924;2022-08-01T09:32:10;101116.34;;;18.03;78.31
73842;BME280;62184;52.006;5.924;2022-08-01T09:34:37;101114.59;;;18.02;78.60
73842;BME280;62184;52.006;5.924;2022-08-01T09:37:04;101124.41;;;18.05;78.61
73842;BME280;62184;52.006;5.924;2022-08-01T09:39:31;101120.81;;;18.04;78.27
73842;BME280;62184;52.006;5.924;2022-08-01T09:42:00;101132.72;;;18.00;78.31
73842;BME280;62184;52.006;5.924;2022-08-01T09:44:42;101132.22;;;17.92;78.57
73842;BME280;62184;52.006;5.924;2022-08-01T09:47:10;101130.59;;;17.89;79.03
73842;BME280;62184;52.006;5.924;2022-08-01T09:49:40;101139.31;;;17.94;79.00
73842;BME280;62184;52.006;5.924;2022-08-01T09:52:12;101134.00;;;17.93;78.47
73842;BME280;62184;52.006;5.924;2022-08-01T09:54:41;101140.34;;;17.92;79.13
73842;BME280;62184;52.006;5.924;2022-08-01T09:57:11;101137.44;;;17.97;79.16
73842;BME280;62184;52.006;5.924;2022-08-01T09:59:43;101143.53;;;18.00;78.63
73842;BME280;62184;52.006;5.924;2022-08-01T10:02:11;101141.50;;;18.05;78.93
73842;BME280;62184;52.006;5.924;2022-08-01T10:04:46;101143.88;;;18.11;79.13
73842;BME280;62184;52.006;5.924;2022-08-01T10:07:13;101142.59;;;18.18;79.34
73842;BME280;62184;52.006;5.924;2022-08-01T10:09:39;101147.38;;;18.30;79.28
73842;BME280;62184;52.006;5.924;2022-08-01T10:12:06;101151.00;;;18.48;79.51
73842;BME280;62184;52.006;5.924;2022-08-01T10:14:34;101149.91;;;18.68;79.64
73842;BME280;62184;52.006;5.924;2022-08-01T10:17:08;101154.69;;;18.80;78.86
73842;BME280;62184;52.006;5.924;2022-08-01T10:19:40;101153.19;;;18.75;78.33
73842;BME280;62184;52.006;5.924;2022-08-01T10:22:08;101150.63;;;18.72;78.51
73842;BME280;62184;52.006;5.924;2022-08-01T10:24:38;101152.47;;;18.71;78.67
73842;BME280;62184;52.006;5.924;2022-08-01T10:27:07;101153.34;;;18.72;78.59
73842;BME280;62184;52.006;5.924;2022-08-01T10:29:37;101154.22;;;18.72;78.81
73842;BME280;62184;52.006;5.924;2022-08-01T10:32:10;101157.72;;;18.74;78.83
73842;BME280;62184;52.006;5.924;2022-08-01T10:34:37;101162.00;;;18.78;78.68
73842;BME280;62184;52.006;5.924;2022-08-01T10:37:04;101165.97;;;18.88;78.90
73842;BME280;62184;52.006;5.924;2022-08-01T10:39:32;101161.09;;;18.95;79.03
73842;BME280;62184;52.006;5.924;2022-08-01T10:41:59;101163.78;;;18.95;78.30
73842;BME280;62184;52.006;5.924;2022-08-01T10:44:27;101159.53;;;18.91;78.46
73842;BME280;62184;52.006;5.924;2022-08-01T10:47:01;101163.50;;;18.84;78.04
73842;BME280;62184;52.006;5.924;2022-08-01T10:49:41;101157.53;;;18.77;77.98
73842;BME280;62184;52.006;5.924;2022-08-01T10:52:14;101150.56;;;18.73;78.34
73842;BME280;62184;52.006;5.924;2022-08-01T10:54:41;101163.13;;;18.74;78.39
73842;BME280;62184;52.006;5.924;2022-08-01T10:57:08;101158.25;;;18.81;78.26
73842;BME280;62184;52.006;5.924;2022-08-01T10:59:34;101156.16;;;18.86;78.22
73842;BME280;62184;52.006;5.924;2022-08-01T11:02:03;101165.41;;;18.99;78.50
73842;BME280;62184;52.006;5.924;2022-08-01T11:04:43;101158.94;;;19.17;77.93
73842;BME280;62184;52.006;5.924;2022-08-01T11:07:20;101158.34;;;19.28;77.46
73842;BME280;62184;52.006;5.924;2022-08-01T11:10:00;101151.41;;;19.39;77.30
73842;BME280;62184;52.006;5.924;2022-08-01T11:12:38;101158.22;;;19.47;76.72
73842;BME280;62184;52.006;5.924;2022-08-01T11:15:22;101160.66;;;19.51;76.48
73842;BME280;62184;52.006;5.924;2022-08-01T11:17:50;101155.97;;;19.55;76.89
73842;BME280;62184;52.006;5.924;2022-08-01T11:20:22;101155.44;;;19.64;76.14
73842;BME280;62184;52.006;5.924;2022-08-01T11:29:13;101148.03;;;19.97;74.44
73842;BME280;62184;52.006;5.924;2022-08-01T11:31:44;101148.84;;;19.99;74.64
73842;BME280;62184;52.006;5.924;2022-08-01T11:34:10;101148.19;;;20.10;74.64
73842;BME280;62184;52.006;5.924;2022-08-01T11:36:39;101164.47;;;20.26;74.61
73842;BME280;62184;52.006;5.924;2022-08-01T11:39:14;101156.84;;;20.32;73.64
73842;BME280;62184;52.006;5.924;2022-08-01T11:41:46;101155.50;;;20.39;74.01
73842;BME280;62184;52.006;5.924;2022-08-01T11:44:16;101150.00;;;20.55;73.66
73842;BME280;62184;52.006;5.924;2022-08-01T11:47:00;101162.34;;;20.75;73.14
73842;BME280;62184;52.006;5.924;2022-08-01T11:49:32;101163.22;;;20.89;72.20
73842;BME280;62184;52.006;5.924;2022-08-01T11:52:13;101153.19;;;21.06;72.09
73842;BME280;62184;52.006;5.924;2022-08-01T11:54:43;101156.47;;;21.25;71.91
73842;BME280;62184;52.006;5.924;2022-08-01T11:57:13;101157.00;;;21.44;71.65
73842;BME280;62184;52.006;5.924;2022-08-01T11:59:43;101163.88;;;21.64;70.74
73842;BME280;62184;52.006;5.924;2022-08-01T12:02:18;101163.09;;;21.76;70.25
73842;BME280;62184;52.006;5.924;2022-08-01T12:04:48;101162.19;;;21.90;70.11
73842;BME280;62184;52.006;5.924;2022-08-01T12:07:19;101161.56;;;21.99;69.43
73842;BME280;62184;52.006;5.924;2022-08-01T12:09:47;101159.72;;;21.99;68.65
73842;BME280;62184;52.006;5.924;2022-08-01T12:12:17;101157.19;;;21.96;67.72
73842;BME280;62184;52.006;5.924;2022-08-01T12:14:45;101144.88;;;21.91;66.80
73842;BME280;62184;52.006;5.924;2022-08-01T12:17:20;101162.00;;;21.79;66.65
73842;BME280;62184;52.006;5.924;2022-08-01T12:19:52;101160.53;;;21.73;66.53
73842;BME280;62184;52.006;5.924;2022-08-01T12:22:23;101164.56;;;21.67;65.25
73842;BME280;62184;52.006;5.924;2022-08-01T12:24:50;101162.44;;;21.58;65.56
73842;BME280;62184;52.006;5.924;2022-08-01T12:27:24;101162.63;;;21.55;65.59
73842;BME280;62184;52.006;5.924;2022-08-01T12:29:52;101165.72;;;21.63;66.23
73842;BME280;62184;52.006;5.924;2022-08-01T12:32:24;101161.03;;;21.80;65.49
73842;BME280;62184;52.006;5.924;2022-08-01T12:34:54;101163.50;;;21.97;65.23
73842;BME280;62184;52.006;5.924;2022-08-01T12:37:24;101163.91;;;22.18;64.75
73842;BME280;62184;52.006;5.924;2022-08-01T12:39:50;101166.47;;;22.33;64.02
73842;BME280;62184;52.006;5.924;2022-08-01T12:42:20;101169.19;;;22.46;63.07
73842;BME280;62184;52.006;5.924;2022-08-01T12:44:48;101162.72;;;22.49;61.90
73842;BME280;62184;52.006;5.924;2022-08-01T12:47:17;101167.63;;;22.29;60.68
73842;BME280;62184;52.006;5.924;2022-08-01T12:49:45;101166.28;;;22.10;60.65
73842;BME280;62184;52.006;5.924;2022-08-01T12:52:13;101167.78;;;22.01;60.92
73842;BME280;62184;52.006;5.924;2022-08-01T12:55:04;101172.78;;;22.07;60.18
73842;BME280;62184;52.006;5.924;2022-08-01T12:57:34;101162.97;;;22.04;60.84
73842;BME280;62184;52.006;5.924;2022-08-01T13:00:16;101162.97;;;22.04;59.84
73842;BME280;62184;52.006;5.924;2022-08-01T13:02:45;101153.84;;;22.05;60.12
73842;BME280;62184;52.006;5.924;2022-08-01T13:05:13;101168.13;;;22.09;60.97
73842;BME280;62184;52.006;5.924;2022-08-01T13:07:47;101161.53;;;22.26;60.43